sensor_id;sensor_type;location;lat;lon;timestamp;temperature;humidity
15713;DHT22;7957;51.608;6.916;2023-03-04T00:02:19;4.50;99.90
15713;DHT22;7957;51.608;6.916;2023-03-04T00:04:46;4.50;99.90
15713;DHT22;7957;51.608;6.916;2023-03-04T00:07:13;4.50;99.90
15713;DHT22;7957;51.608;6.916;2023-03-04T00:09:41;4.50;99.90
15713;DHT22;7957;51.608;6.916;2023-03-04T00:12:10;4.50;99.90
15713;DHT22;7957;51.608;6.916;2023-03-04T00:14:37;4.50;99.90
15713;DHT22;7957;51.608;6.916;2023-03-04T00:17:04;4.50;99.90
15713;DHT22;7957;51.608;6.916;2023-03-04T00:19:31;4.50;99.90
15713;DHT22;7957;51.608;6.916;2023-03-04T00:21:59;4.50;99.90
15713;DHT22;7957;51.608;6.916;2023-03-04T00:24:26;4.50;99.90
15713;DHT22;7957;51.608;6.916;2023-03-04T00:26:53;4.50;99.90
15713;DHT22;7957;51.608;6.916;2023-03-04T00:29:21;4.50;99.90
15713;DHT22;7957;51.608;6.916;2023-03-04T00:31:48;4.50;99.90
15713;DHT22;7957;51.608;6.916;2023-03-04T00:34:15;4.50;99.90
15713;DHT22;7957;51.608;6.916;2023-03-04T00:36:42;4.50;99.90
15713;DHT22;7957;51.608;6.916;2023-03-04T00:39:09;4.50;99.90
15713;DHT22;7957;51.608;6.916;2023-03-04T00:41:36;4.50;99.90
15713;DHT22;7957;51.608;6.916;2023-03-04T00:44:03;4.50;99.90
15713;DHT22;7957;51.608;6.916;2023-03-04T00:46:32;4.50;99.90
15713;DHT22;7957;51.608;6.916;2023-03-04T00:48:58;4.50;99.90
15713;DHT22;7957;51.608;6.916;2023-03-04T00:51:25;4.50;1.00
15713;DHT22;7957;51.608;6.916;2023-03-04T00:53:52;4.50;1.00
15713;DHT22;7957;51.608;6.916;2023-03-04T00:56:19;4.40;1.00
15713;DHT22;7957;51.608;6.916;2023-03-04T00:58:46;4.50;1.00
15713;DHT22;7957;51.608;6.916;2023-03-04T01:01:13;4.50;1.00
15713;DHT22;7957;51.608;6.916;2023-03-04T01:03:41;4.50;1.00
15713;DHT22;7957;51.608;6.916;2023-03-04T01:06:08;4.50;1.00
15713;DHT22;7957;51.608;6.916;2023-03-04T01:08:36;4.50;1.00
15713;DHT22;7957;51.608;6.916;2023-03-04T01:11:03;4.50;1.00
15713;DHT22;7957;51.608;6.916;2023-03-04T01:13:30;4.50;1.00
15713;DHT22;7957;51.608;6.916;2023-03-04T01:15:57;4.50;1.00
15713;DHT22;7957;51.608;6.916;2023-03-04T01:18:24;4.50;1.00
15713;DHT22;7957;51.608;6.916;2023-03-04T01:20:52;4.50;1.00
15713;DHT22;7957;51.608;6.916;2023-03-04T01:23:19;4.50;1.00
15713;DHT22;7957;51.608;6.916;2023-03-04T01:25:46;4.50;1.00
15713;DHT22;7957;51.608;6.916;2023-03-04T01:28:13;4.50;1.00
15713;DHT22;7957;51.608;6.916;2023-03-04T01:30:40;4.50;1.00
15713;DHT22;7957;51.608;6.916;2023-03-04T01:33:07;4.40;1.00
15713;DHT22;7957;51.608;6.916;2023-03-04T01:35:34;4.50;1.00
15713;DHT22;7957;51.608;6.916;2023-03-04T01:38:03;4.40;1.00
15713;DHT22;7957;51.608;6.916;2023-03-04T01:40:30;4.50;1.00
15713;DHT22;7957;51.608;6.916;2023-03-04T01:42:57;4.40;1.00
15713;DHT22;7957;51.608;6.916;2023-03-04T01:45:24;4.50;1.00
15713;DHT22;7957;51.608;6.916;2023-03-04T01:47:52;4.50;1.00
15713;DHT22;7957;51.608;6.916;2023-03-04T01:50:21;4.50;1.00
15713;DHT22;7957;51.608;6.916;2023-03-04T01:52:49;4.50;1.00
15713;DHT22;7957;51.608;6.916;2023-03-04T01:55:20;4.50;1.00
15713;DHT22;7957;51.608;6.916;2023-03-04T01:57:50;4.40;1.00
15713;DHT22;7957;51.608;6.916;2023-03-04T02:00:25;4.40;1.00
15713;DHT22;7957;51.608;6.916;2023-03-04T02:02:53;4.40;1.00
15713;DHT22;7957;51.608;6.916;2023-03-04T02:05:21;4.40;1.00
15713;DHT22;7957;51.608;6.916;2023-03-04T02:07:49;4.50;1.00
15713;DHT22;7957;51.608;6.916;2023-03-04T02:10:18;4.50;1.00
15713;DHT22;7957;51.608;6.916;2023-03-04T02:12:46;4.40;1.00
15713;DHT22;7957;51.608;6.916;2023-03-04T02:15:14;4.40;1.00
15713;DHT22;7957;51.608;6.916;2023-03-04T02:17:41;4.40;1.00
15713;DHT22;7957;51.608;6.916;2023-03-04T02:20:18;4.40;9.30
15713;DHT22;7957;51.608;6.916;2023-03-04T02:22:55;4.40;25.80
15713;DHT22;7957;51.608;6.916;2023-03-04T02:25:32;4.40;41.90
15713;DHT22;7957;51.608;6.916;2023-03-04T02:28:00;4.40;62.30
15713;DHT22;7957;51.608;6.916;2023-03-04T02:30:27;4.40;78.50
15713;DHT22;7957;51.608;6.916;2023-03-04T02:32:54;4.40;92.50
15713;DHT22;7957;51.608;6.916;2023-03-04T02:35:21;4.40;97.30
15713;DHT22;7957;51.608;6.916;2023-03-04T02:37:48;4.40;99.90
15713;DHT22;7957;51.608;6.916;2023-03-04T02:40:20;4.40;99.90
15713;DHT22;7957;51.608;6.916;2023-03-04T02:42:48;4.40;99.90
15713;DHT22;7957;51.608;6.916;2023-03-04T02:45:47;4.40;99.90
15713;DHT22;7957;51.608;6.916;2023-03-04T02:48:21;4.40;99.90
15713;DHT22;7957;51.608;6.916;2023-03-04T02:50:51;4.40;99.90
15713;DHT22;7957;51.608;6.916;2023-03-04T02:53:18;4.40;99.90
15713;DHT22;7957;51.608;6.916;2023-03-04T02:55:46;4.40;99.90
15713;DHT22;7957;51.608;6.916;2023-03-04T02:58:13;4.40;99.90
15713;DHT22;7957;51.608;6.916;2023-03-04T03:00:41;4.40;99.90
15713;DHT22;7957;51.608;6.916;2023-03-04T03:03:09;4.40;99.90
15713;DHT22;7957;51.608;6.916;2023-03-04T03:05:36;4.40;99.90
15713;DHT22;7957;51.608;6.916;2023-03-04T03:08:04;4.40;99.90
15713;DHT22;7957;51.608;6.916;2023-03-04T03:10:31;4.40;99.90
15713;DHT22;7957;51.608;6.916;2023-03-04T03:12:58;4.40;99.90
15713;DHT22;7957;51.608;6.916;2023-03-04T03:15:25;4.40;99.90
15713;DHT22;7957;51.608;6.916;2023-03-04T03:17:52;4.40;99.90
15713;DHT22;7957;51.608;6.916;2023-03-04T03:20:20;4.40;99.90
15713;DHT22;7957;51.608;6.916;2023-03-04T03:22:47;4.40;99.90
15713;DHT22;7957;51.608;6.916;2023-03-04T03:25:15;4.40;99.90
15713;DHT22;7957;51.608;6.916;2023-03-04T03:27:42;4.40;99.90
15713;DHT22;7957;51.608;6.916;2023-03-04T03:30:11;4.40;99.90
15713;DHT22;7957;51.608;6.916;2023-03-04T03:32:39;4.40;99.90
15713;DHT22;7957;51.608;6.916;2023-03-04T03:35:06;4.40;99.90
15713;DHT22;7957;51.608;6.916;2023-03-04T03:37:34;4.40;99.90
15713;DHT22;7957;51.608;6.916;2023-03-04T03:40:01;4.40;99.90
15713;DHT22;7957;51.608;6.916;2023-03-04T03:42:28;4.40;99.90
15713;DHT22;7957;51.608;6.916;2023-03-04T03:44:55;4.40;99.90
15713;DHT22;7957;51.608;6.916;2023-03-04T03:47:23;4.40;99.90
15713;DHT22;7957;51.608;6.916;2023-03-04T03:49:49;4.40;99.90
15713;DHT22;7957;51.608;6.916;2023-03-04T03:52:16;4.40;1.00
15713;DHT22;7957;51.608;6.916;2023-03-04T03:54:45;4.40;1.00
15713;DHT22;7957;51.608;6.916;2023-03-04T03:57:11;4.40;1.00
15713;DHT22;7957;51.608;6.916;2023-03-04T03:59:38;4.40;1.00
15713;DHT22;7957;51.608;6.916;2023-03-04T04:02:05;4.40;1.00
15713;DHT22;7957;51.608;6.916;2023-03-04T04:04:32;4.40;1.00
15713;DHT22;7957;51.608;6.916;2023-03-04T04:06:59;4.40;1.00
15713;DHT22;7957;51.608;6.916;2023-03-04T04:09:26;4.40;1.00
15713;DHT22;7957;51.608;6.916;2023-03-04T04:11:55;4.40;1.00
15713;DHT22;7957;51.608;6.916;2023-03-04T04:14:23;4.40;1.00
15713;DHT22;7957;51.608;6.916;2023-03-04T04:16:50;4.40;1.00
15713;DHT22;7957;51.608;6.916;2023-03-04T04:19:17;4.40;1.00
15713;DHT22;7957;51.608;6.916;2023-03-04T04:21:45;4.40;1.00
15713;DHT22;7957;51.608;6.916;2023-03-04T04:24:13;4.40;1.00
15713;DHT22;7957;51.608;6.916;2023-03-04T04:26:40;4.40;1.00
15713;DHT22;7957;51.608;6.916;2023-03-04T04:29:11;4.40;1.00
15713;DHT22;7957;51.608;6.916;2023-03-04T04:31:38;4.40;1.00
15713;DHT22;7957;51.608;6.916;2023-03-04T04:34:05;4.40;1.00
15713;DHT22;7957;51.608;6.916;2023-03-04T04:36:32;4.40;1.00
15713;DHT22;7957;51.608;6.916;2023-03-04T04:38:59;4.40;1.00
15713;DHT22;7957;51.608;6.916;2023-03-04T04:41:29;4.40;1.00
15713;DHT22;7957;51.608;6.916;2023-03-04T04:43:56;4.40;1.00
15713;DHT22;7957;51.608;6.916;2023-03-04T04:46:25;4.40;1.00
15713;DHT22;7957;51.608;6.916;2023-03-04T04:48:52;4.40;1.00
15713;DHT22;7957;51.608;6.916;2023-03-04T04:51:19;4.40;1.00
15713;DHT22;7957;51.608;6.916;2023-03-04T04:53:46;4.40;1.00
15713;DHT22;7957;51.608;6.916;2023-03-04T04:56:14;4.40;1.00
15713;DHT22;7957;51.608;6.916;2023-03-04T04:58:41;4.40;1.00
15713;DHT22;7957;51.608;6.916;2023-03-04T05:01:09;4.40;1.00
15713;DHT22;7957;51.608;6.916;2023-03-04T05:03:37;4.40;1.00
15713;DHT22;7957;51.608;6.916;2023-03-04T05:06:07;4.40;1.00
15713;DHT22;7957;51.608;6.916;2023-03-04T05:08:34;4.40;1.00
15713;DHT22;7957;51.608;6.916;2023-03-04T05:11:02;4.40;1.00
15713;DHT22;7957;51.608;6.916;2023-03-04T05:13:30;4.40;1.00
15713;DHT22;7957;51.608;6.916;2023-03-04T05:15:57;4.40;1.00
15713;DHT22;7957;51.608;6.916;2023-03-04T05:18:25;4.40;1.00
15713;DHT22;7957;51.608;6.916;2023-03-04T05:20:55;4.40;1.00
15713;DHT22;7957;51.608;6.916;2023-03-04T05:23:22;4.40;1.00
15713;DHT22;7957;51.608;6.916;2023-03-04T05:25:50;4.40;1.00
15713;DHT22;7957;51.608;6.916;2023-03-04T05:28:17;4.40;1.00
15713;DHT22;7957;51.608;6.916;2023-03-04T05:30:44;4.40;1.00
15713;DHT22;7957;51.608;6.916;2023-03-04T05:33:12;4.40;1.00
15713;DHT22;7957;51.608;6.916;2023-03-04T05:35:41;4.30;5.50
15713;DHT22;7957;51.608;6.916;2023-03-04T05:38:12;4.40;25.30
15713;DHT22;7957;51.608;6.916;2023-03-04T05:40:40;4.40;39.80
15713;DHT22;7957;51.608;6.916;2023-03-04T05:43:08;4.40;61.20
15713;DHT22;7957;51.608;6.916;2023-03-04T05:45:35;4.40;91.40
15713;DHT22;7957;51.608;6.916;2023-03-04T05:48:02;4.40;85.90
15713;DHT22;7957;51.608;6.916;2023-03-04T05:50:30;4.40;94.40
15713;DHT22;7957;51.608;6.916;2023-03-04T05:53:00;4.40;99.40
15713;DHT22;7957;51.608;6.916;2023-03-04T05:55:28;4.40;99.90
15713;DHT22;7957;51.608;6.916;2023-03-04T05:57:55;4.40;99.90
15713;DHT22;7957;51.608;6.916;2023-03-04T06:00:23;4.40;99.90
15713;DHT22;7957;51.608;6.916;2023-03-04T06:02:50;4.40;99.90
15713;DHT22;7957;51.608;6.916;2023-03-04T06:05:18;4.40;99.90
15713;DHT22;7957;51.608;6.916;2023-03-04T06:07:45;4.40;99.90
15713;DHT22;7957;51.608;6.916;2023-03-04T06:10:14;4.40;99.90
15713;DHT22;7957;51.608;6.916;2023-03-04T06:12:43;4.40;99.90
15713;DHT22;7957;51.608;6.916;2023-03-04T06:15:10;4.40;99.90
15713;DHT22;7957;51.608;6.916;2023-03-04T06:17:38;4.40;99.90
15713;DHT22;7957;51.608;6.916;2023-03-04T06:20:06;4.40;99.90
15713;DHT22;7957;51.608;6.916;2023-03-04T06:22:34;4.40;99.90
15713;DHT22;7957;51.608;6.916;2023-03-04T06:25:01;4.40;99.90
15713;DHT22;7957;51.608;6.916;2023-03-04T06:27:28;4.40;99.90
15713;DHT22;7957;51.608;6.916;2023-03-04T06:29:57;4.40;99.90
15713;DHT22;7957;51.608;6.916;2023-03-04T06:32:24;4.40;99.90
15713;DHT22;7957;51.608;6.916;2023-03-04T06:34:51;4.40;99.90
15713;DHT22;7957;51.608;6.916;2023-03-04T06:37:18;4.40;99.90
15713;DHT22;7957;51.608;6.916;2023-03-04T06:39:45;4.40;99.90
15713;DHT22;7957;51.608;6.916;2023-03-04T06:42:12;4.40;99.90
15713;DHT22;7957;51.608;6.916;2023-03-04T06:44:39;4.40;99.90
15713;DHT22;7957;51.608;6.916;2023-03-04T06:47:07;4.40;99.90
15713;DHT22;7957;51.608;6.916;2023-03-04T06:49:34;4.40;99.90
15713;DHT22;7957;51.608;6.916;2023-03-04T06:52:01;4.40;99.90
15713;DHT22;7957;51.608;6.916;2023-03-04T06:54:29;4.40;99.90
15713;DHT22;7957;51.608;6.916;2023-03-04T06:56:56;4.40;99.90
15713;DHT22;7957;51.608;6.916;2023-03-04T06:59:23;4.40;99.90
15713;DHT22;7957;51.608;6.916;2023-03-04T07:01:50;4.40;99.90
15713;DHT22;7957;51.608;6.916;2023-03-04T07:04:18;4.40;1.00
15713;DHT22;7957;51.608;6.916;2023-03-04T07:06:47;4.40;1.00
15713;DHT22;7957;51.608;6.916;2023-03-04T07:09:14;4.40;1.00
15713;DHT22;7957;51.608;6.916;2023-03-04T07:11:41;4.40;1.00
15713;DHT22;7957;51.608;6.916;2023-03-04T07:14:08;4.40;1.00
15713;DHT22;7957;51.608;6.916;2023-03-04T07:16:35;4.40;1.00
15713;DHT22;7957;51.608;6.916;2023-03-04T07:19:02;4.40;1.00
15713;DHT22;7957;51.608;6.916;2023-03-04T07:21:31;4.40;1.00
15713;DHT22;7957;51.608;6.916;2023-03-04T07:23:58;4.40;1.00
15713;DHT22;7957;51.608;6.916;2023-03-04T07:26:25;4.40;1.00
15713;DHT22;7957;51.608;6.916;2023-03-04T07:28:52;4.40;1.00
15713;DHT22;7957;51.608;6.916;2023-03-04T07:31:23;4.40;1.00
15713;DHT22;7957;51.608;6.916;2023-03-04T07:33:54;4.40;1.00
15713;DHT22;7957;51.608;6.916;2023-03-04T07:36:21;4.50;1.00
15713;DHT22;7957;51.608;6.916;2023-03-04T07:38:50;4.50;1.00
15713;DHT22;7957;51.608;6.916;2023-03-04T07:41:20;4.50;1.00
15713;DHT22;7957;51.608;6.916;2023-03-04T07:43:47;4.50;1.00
15713;DHT22;7957;51.608;6.916;2023-03-04T07:46:14;4.60;1.00
15713;DHT22;7957;51.608;6.916;2023-03-04T07:48:41;4.60;1.00
15713;DHT22;7957;51.608;6.916;2023-03-04T07:51:09;4.60;1.00
15713;DHT22;7957;51.608;6.916;2023-03-04T07:53:38;4.70;1.00
15713;DHT22;7957;51.608;6.916;2023-03-04T07:56:09;4.70;1.00
15713;DHT22;7957;51.608;6.916;2023-03-04T07:58:37;4.70;1.00
15713;DHT22;7957;51.608;6.916;2023-03-04T08:01:08;4.80;1.00
15713;DHT22;7957;51.608;6.916;2023-03-04T08:03:35;4.80;1.00
15713;DHT22;7957;51.608;6.916;2023-03-04T08:06:04;4.90;31.70
15713;DHT22;7957;51.608;6.916;2023-03-04T08:08:31;4.90;48.40
15713;DHT22;7957;51.608;6.916;2023-03-04T08:10:58;5.00;40.40
15713;DHT22;7957;51.608;6.916;2023-03-04T08:13:26;5.00;39.90
15713;DHT22;7957;51.608;6.916;2023-03-04T08:15:54;5.10;50.40
15713;DHT22;7957;51.608;6.916;2023-03-04T08:18:22;5.10;52.50
15713;DHT22;7957;51.608;6.916;2023-03-04T08:20:49;5.10;58.80
15713;DHT22;7957;51.608;6.916;2023-03-04T08:23:16;5.20;84.40
15713;DHT22;7957;51.608;6.916;2023-03-04T08:25:44;5.20;86.50
15713;DHT22;7957;51.608;6.916;2023-03-04T08:28:12;5.20;83.00
15713;DHT22;7957;51.608;6.916;2023-03-04T08:30:40;5.30;81.70
15713;DHT22;7957;51.608;6.916;2023-03-04T08:33:08;5.30;92.10
15713;DHT22;7957;51.608;6.916;2023-03-04T08:35:36;5.30;99.90
15713;DHT22;7957;51.608;6.916;2023-03-04T08:38:03;5.40;99.90
15713;DHT22;7957;51.608;6.916;2023-03-04T08:40:31;5.40;99.90
15713;DHT22;7957;51.608;6.916;2023-03-04T08:42:58;5.40;99.90
15713;DHT22;7957;51.608;6.916;2023-03-04T08:45:25;5.40;99.90
15713;DHT22;7957;51.608;6.916;2023-03-04T08:47:53;5.40;99.90
15713;DHT22;7957;51.608;6.916;2023-03-04T08:50:20;5.50;99.90
15713;DHT22;7957;51.608;6.916;2023-03-04T08:52:47;5.50;99.90
15713;DHT22;7957;51.608;6.916;2023-03-04T08:55:14;5.50;99.90
15713;DHT22;7957;51.608;6.916;2023-03-04T08:57:41;5.50;99.90
15713;DHT22;7957;51.608;6.916;2023-03-04T09:00:08;5.60;99.90
15713;DHT22;7957;51.608;6.916;2023-03-04T09:02:36;5.60;99.90
15713;DHT22;7957;51.608;6.916;2023-03-04T09:05:06;5.60;99.90
15713;DHT22;7957;51.608;6.916;2023-03-04T09:07:33;5.70;99.90
15713;DHT22;7957;51.608;6.916;2023-03-04T09:10:00;5.60;99.90
15713;DHT22;7957;51.608;6.916;2023-03-04T09:12:27;5.70;99.90
15713;DHT22;7957;51.608;6.916;2023-03-04T09:14:53;5.70;99.90
15713;DHT22;7957;51.608;6.916;2023-03-04T09:17:20;5.70;99.90
15713;DHT22;7957;51.608;6.916;2023-03-04T09:19:47;5.70;99.90
15713;DHT22;7957;51.608;6.916;2023-03-04T09:22:16;5.70;99.90
15713;DHT22;7957;51.608;6.916;2023-03-04T09:24:42;5.70;99.90
15713;DHT22;7957;51.608;6.916;2023-03-04T09:27:09;5.80;99.90
15713;DHT22;7957;51.608;6.916;2023-03-04T09:29:36;5.80;99.90
15713;DHT22;7957;51.608;6.916;2023-03-04T09:32:04;5.80;99.90
15713;DHT22;7957;51.608;6.916;2023-03-04T09:34:31;5.90;99.90
15713;DHT22;7957;51.608;6.916;2023-03-04T09:36:58;5.90;99.90
15713;DHT22;7957;51.608;6.916;2023-03-04T09:39:27;6.00;99.90
15713;DHT22;7957;51.608;6.916;2023-03-04T09:41:56;6.00;99.90
15713;DHT22;7957;51.608;6.916;2023-03-04T09:44:27;6.20;99.90
15713;DHT22;7957;51.608;6.916;2023-03-04T09:46:56;6.20;99.90
15713;DHT22;7957;51.608;6.916;2023-03-04T09:49:24;6.30;99.90
15713;DHT22;7957;51.608;6.916;2023-03-04T09:51:58;6.30;99.90
15713;DHT22;7957;51.608;6.916;2023-03-04T09:54:35;6.30;99.90
15713;DHT22;7957;51.608;6.916;2023-03-04T09:57:17;6.40;99.90
15713;DHT22;7957;51.608;6.916;2023-03-04T09:59:50;6.40;99.90
15713;DHT22;7957;51.608;6.916;2023-03-04T10:02:24;6.50;99.90
15713;DHT22;7957;51.608;6.916;2023-03-04T10:04:58;6.40;99.90
15713;DHT22;7957;51.608;6.916;2023-03-04T10:07:31;6.50;99.90
15713;DHT22;7957;51.608;6.916;2023-03-04T10:10:04;6.50;99.90
15713;DHT22;7957;51.608;6.916;2023-03-04T10:12:37;6.50;99.90
15713;DHT22;7957;51.608;6.916;2023-03-04T10:15:17;6.50;99.90
15713;DHT22;7957;51.608;6.916;2023-03-04T10:17:49;6.50;99.90
15713;DHT22;7957;51.608;6.916;2023-03-04T10:20:21;6.50;99.90
15713;DHT22;7957;51.608;6.916;2023-03-04T10:22:49;6.50;99.90
15713;DHT22;7957;51.608;6.916;2023-03-04T10:25:21;6.50;99.90
15713;DHT22;7957;51.608;6.916;2023-03-04T10:27:51;6.60;99.90
15713;DHT22;7957;51.608;6.916;2023-03-04T10:30:28;6.60;99.90
15713;DHT22;7957;51.608;6.916;2023-03-04T10:32:56;6.60;99.90
15713;DHT22;7957;51.608;6.916;2023-03-04T10:35:25;6.70;99.90
15713;DHT22;7957;51.608;6.916;2023-03-04T10:37:53;6.70;99.90
15713;DHT22;7957;51.608;6.916;2023-03-04T10:40:24;6.70;99.90
15713;DHT22;7957;51.608;6.916;2023-03-04T10:42:52;6.70;99.90
15713;DHT22;7957;51.608;6.916;2023-03-04T10:45:22;6.70;99.90
15713;DHT22;7957;51.608;6.916;2023-03-04T10:47:52;6.70;99.90
15713;DHT22;7957;51.608;6.916;2023-03-04T10:50:24;6.70;99.90
15713;DHT22;7957;51.608;6.916;2023-03-04T10:52:53;6.70;99.90
15713;DHT22;7957;51.608;6.916;2023-03-04T10:55:23;6.80;99.90
15713;DHT22;7957;51.608;6.916;2023-03-04T10:57:53;6.80;99.90
15713;DHT22;7957;51.608;6.916;2023-03-04T11:00:26;6.90;99.90
15713;DHT22;7957;51.608;6.916;2023-03-04T11:03:19;6.90;99.90
15713;DHT22;7957;51.608;6.916;2023-03-04T11:05:47;7.00;99.90
15713;DHT22;7957;51.608;6.916;2023-03-04T11:08:16;7.00;99.90
15713;DHT22;7957;51.608;6.916;2023-03-04T11:10:45;7.10;99.90
15713;DHT22;7957;51.608;6.916;2023-03-04T11:13:16;7.10;99.90
15713;DHT22;7957;51.608;6.916;2023-03-04T11:15:49;7.10;99.90
15713;DHT22;7957;51.608;6.916;2023-03-04T11:18:19;7.10;99.90
15713;DHT22;7957;51.608;6.916;2023-03-04T11:20:48;7.10;99.90
15713;DHT22;7957;51.608;6.916;2023-03-04T11:23:17;7.10;99.90
15713;DHT22;7957;51.608;6.916;2023-03-04T11:25:54;7.10;99.90
15713;DHT22;7957;51.608;6.916;2023-03-04T11:28:24;7.10;99.90
15713;DHT22;7957;51.608;6.916;2023-03-04T11:30:55;7.00;99.90
15713;DHT22;7957;51.608;6.916;2023-03-04T11:33:27;7.00;99.90
15713;DHT22;7957;51.608;6.916;2023-03-04T11:36:08;7.00;99.90
15713;DHT22;7957;51.608;6.916;2023-03-04T11:38:41;6.90;99.90
15713;DHT22;7957;51.608;6.916;2023-03-04T11:41:14;6.90;99.90
15713;DHT22;7957;51.608;6.916;2023-03-04T11:43:45;6.90;99.90
15713;DHT22;7957;51.608;6.916;2023-03-04T11:49:33;6.80;99.90
15713;DHT22;7957;51.608;6.916;2023-03-04T11:52:08;6.80;99.90
15713;DHT22;7957;51.608;6.916;2023-03-04T11:54:47;6.70;99.90
15713;DHT22;7957;51.608;6.916;2023-03-04T11:57:28;6.70;99.90
15713;DHT22;7957;51.608;6.916;2023-03-04T12:00:08;6.70;99.90
15713;DHT22;7957;51.608;6.916;2023-03-04T12:02:45;6.70;99.90
15713;DHT22;7957;51.608;6.916;2023-03-04T12:05:26;6.80;99.90
15713;DHT22;7957;51.608;6.916;2023-03-04T12:11:01;6.90;99.90
15713;DHT22;7957;51.608;6.916;2023-03-04T12:13:41;6.90;99.90
15713;DHT22;7957;51.608;6.916;2023-03-04T12:16:21;6.90;99.90
15713;DHT22;7957;51.608;6.916;2023-03-04T12:19:07;6.90;99.90
15713;DHT22;7957;51.608;6.916;2023-03-04T12:21:58;6.90;99.90
15713;DHT22;7957;51.608;6.916;2023-03-04T12:27:36;6.90;99.90
15713;DHT22;7957;51.608;6.916;2023-03-04T12:30:18;6.80;99.90
15713;DHT22;7957;51.608;6.916;2023-03-04T12:32:57;6.80;99.90
15713;DHT22;7957;51.608;6.916;2023-03-04T12:35:36;6.80;99.90
15713;DHT22;7957;51.608;6.916;2023-03-04T12:38:18;6.70;99.90
15713;DHT22;7957;51.608;6.916;2023-03-04T12:40:53;6.70;99.90
15713;DHT22;7957;51.608;6.916;2023-03-04T12:43:32;6.80;99.90
15713;DHT22;7957;51.608;6.916;2023-03-04T12:46:14;6.80;99.90
15713;DHT22;7957;51.608;6.916;2023-03-04T12:48:47;6.80;99.90
15713;DHT22;7957;51.608;6.916;2023-03-04T12:51:29;6.90;99.90
15713;DHT22;7957;51.608;6.916;2023-03-04T12:54:07;6.90;99.90
15713;DHT22;7957;51.608;6.916;2023-03-04T12:56:40;7.00;99.90
15713;DHT22;7957;51.608;6.916;2023-03-04T12:59:14;7.00;99.90
15713;DHT22;7957;51.608;6.916;2023-03-04T13:01:49;7.00;99.90
15713;DHT22;7957;51.608;6.916;2023-03-04T13:04:25;7.00;99.90
15713;DHT22;7957;51.608;6.916;2023-03-04T13:07:06;6.90;99.90
15713;DHT22;7957;51.608;6.916;2023-03-04T13:09:39;6.90;99.90
15713;DHT22;7957;51.608;6.916;2023-03-04T13:12:14;6.90;99.90
15713;DHT22;7957;51.608;6.916;2023-03-04T13:15:31;6.90;99.90
15713;DHT22;7957;51.608;6.916;2023-03-04T13:18:02;6.80;99.90
15713;DHT22;7957;51.608;6.916;2023-03-04T13:20:35;6.80;99.90
15713;DHT22;7957;51.608;6.916;2023-03-04T13:23:17;6.80;99.90
15713;DHT22;7957;51.608;6.916;2023-03-04T13:25:48;6.70;99.90
15713;DHT22;7957;51.608;6.916;2023-03-04T13:31:11;6.70;99.90
15713;DHT22;7957;51.608;6.916;2023-03-04T13:36:52;6.80;99.90
15713;DHT22;7957;51.608;6.916;2023-03-04T13:39:34;6.80;99.90
15713;DHT22;7957;51.608;6.916;2023-03-04T13:42:03;6.90;99.90
15713;DHT22;7957;51.608;6.916;2023-03-04T13:44:33;6.90;99.90
15713;DHT22;7957;51.608;6.916;2023-03-04T13:47:08;6.90;99.90
15713;DHT22;7957;51.608;6.916;2023-03-04T13:49:36;7.00;99.90
15713;DHT22;7957;51.608;6.916;2023-03-04T13:52:36;7.00;99.90
15713;DHT22;7957;51.608;6.916;2023-03-04T13:55:32;7.10;99.90
15713;DHT22;7957;51.608;6.916;2023-03-04T13:58:02;7.10;99.90
15713;DHT22;7957;51.608;6.916;2023-03-04T14:00:46;7.10;99.90
15713;DHT22;7957;51.608;6.916;2023-03-04T14:03:19;7.10;99.90
15713;DHT22;7957;51.608;6.916;2023-03-04T14:08:29;7.20;99.90
15713;DHT22;7957;51.608;6.916;2023-03-04T14:10:56;7.20;99.90
15713;DHT22;7957;51.608;6.916;2023-03-04T14:13:23;7.20;99.90
15713;DHT22;7957;51.608;6.916;2023-03-04T14:15:56;7.20;99.90
15713;DHT22;7957;51.608;6.916;2023-03-04T14:18:23;7.20;99.90
15713;DHT22;7957;51.608;6.916;2023-03-04T14:20:54;7.20;99.90
15713;DHT22;7957;51.608;6.916;2023-03-04T14:23:26;7.20;99.90
15713;DHT22;7957;51.608;6.916;2023-03-04T14:26:07;7.20;99.90
15713;DHT22;7957;51.608;6.916;2023-03-04T14:28:42;7.20;99.90
15713;DHT22;7957;51.608;6.916;2023-03-04T14:31:16;7.20;99.90
15713;DHT22;7957;51.608;6.916;2023-03-04T14:33:45;7.20;99.90
15713;DHT22;7957;51.608;6.916;2023-03-04T14:36:18;7.20;99.90
15713;DHT22;7957;51.608;6.916;2023-03-04T14:38:50;7.20;99.90
15713;DHT22;7957;51.608;6.916;2023-03-04T14:41:20;7.20;99.90
15713;DHT22;7957;51.608;6.916;2023-03-04T14:43:54;7.20;99.90
15713;DHT22;7957;51.608;6.916;2023-03-04T14:46:23;7.20;99.90
15713;DHT22;7957;51.608;6.916;2023-03-04T14:48:53;7.20;99.90
15713;DHT22;7957;51.608;6.916;2023-03-04T14:51:41;7.20;99.90
15713;DHT22;7957;51.608;6.916;2023-03-04T14:54:26;7.20;99.90
15713;DHT22;7957;51.608;6.916;2023-03-04T14:56:53;7.20;99.90
15713;DHT22;7957;51.608;6.916;2023-03-04T14:59:28;7.20;99.90
15713;DHT22;7957;51.608;6.916;2023-03-04T15:02:15;7.20;99.90
15713;DHT22;7957;51.608;6.916;2023-03-04T15:04:43;7.20;99.90
15713;DHT22;7957;51.608;6.916;2023-03-04T15:07:15;7.20;99.90
15713;DHT22;7957;51.608;6.916;2023-03-04T15:09:49;7.20;99.90
15713;DHT22;7957;51.608;6.916;2023-03-04T15:12:23;7.20;99.90
15713;DHT22;7957;51.608;6.916;2023-03-04T15:14:52;7.20;99.90
15713;DHT22;7957;51.608;6.916;2023-03-04T15:17:29;7.20;99.90
15713;DHT22;7957;51.608;6.916;2023-03-04T15:20:11;7.20;99.90
15713;DHT22;7957;51.608;6.916;2023-03-04T15:22:58;7.20;99.90
15713;DHT22;7957;51.608;6.916;2023-03-04T15:25:26;7.20;65.00
15713;DHT22;7957;51.608;6.916;2023-03-04T15:27:53;7.20;29.40
15713;DHT22;7957;51.608;6.916;2023-03-04T15:30:23;7.20;1.00
15713;DHT22;7957;51.608;6.916;2023-03-04T15:32:52;7.20;1.00
15713;DHT22;7957;51.608;6.916;2023-03-04T15:35:19;7.20;1.00
15713;DHT22;7957;51.608;6.916;2023-03-04T15:37:48;7.20;1.00
15713;DHT22;7957;51.608;6.916;2023-03-04T15:40:23;7.20;1.00
15713;DHT22;7957;51.608;6.916;2023-03-04T15:42:50;7.10;99.90
15713;DHT22;7957;51.608;6.916;2023-03-04T15:45:20;7.10;14.90
15713;DHT22;7957;51.608;6.916;2023-03-04T15:47:48;7.10;1.00
15713;DHT22;7957;51.608;6.916;2023-03-04T15:50:15;7.10;1.00
15713;DHT22;7957;51.608;6.916;2023-03-04T15:52:43;7.00;99.90
15713;DHT22;7957;51.608;6.916;2023-03-04T15:55:14;7.00;99.90
15713;DHT22;7957;51.608;6.916;2023-03-04T15:57:46;7.00;99.90
15713;DHT22;7957;51.608;6.916;2023-03-04T16:00:14;7.00;99.90
15713;DHT22;7957;51.608;6.916;2023-03-04T16:02:42;7.00;13.90
15713;DHT22;7957;51.608;6.916;2023-03-04T16:05:09;6.90;1.00
15713;DHT22;7957;51.608;6.916;2023-03-04T16:07:37;6.90;1.00
15713;DHT22;7957;51.608;6.916;2023-03-04T16:10:11;6.90;1.00
15713;DHT22;7957;51.608;6.916;2023-03-04T16:12:39;6.90;1.00
15713;DHT22;7957;51.608;6.916;2023-03-04T16:15:13;6.90;1.00
15713;DHT22;7957;51.608;6.916;2023-03-04T16:17:40;6.80;1.00
15713;DHT22;7957;51.608;6.916;2023-03-04T16:20:10;6.80;1.00
15713;DHT22;7957;51.608;6.916;2023-03-04T16:22:39;6.80;1.00
15713;DHT22;7957;51.608;6.916;2023-03-04T16:25:09;6.80;1.00
15713;DHT22;7957;51.608;6.916;2023-03-04T16:27:37;6.80;99.90
15713;DHT22;7957;51.608;6.916;2023-03-04T16:30:05;6.80;99.90
15713;DHT22;7957;51.608;6.916;2023-03-04T16:32:33;6.80;99.90
15713;DHT22;7957;51.608;6.916;2023-03-04T16:35:01;6.70;99.90
15713;DHT22;7957;51.608;6.916;2023-03-04T16:37:28;6.70;99.90
15713;DHT22;7957;51.608;6.916;2023-03-04T16:39:55;6.70;99.90
15713;DHT22;7957;51.608;6.916;2023-03-04T16:42:22;6.70;99.90
15713;DHT22;7957;51.608;6.916;2023-03-04T16:44:51;6.70;99.90